Valle Toledo, Valles Caldera, New Mexico Weather observations

Data are for 10 minute period ending at time listed.
 Day   Time   Solar   Ave.   Ave.  Ave.  Vector  Max.   Baro.   Total    
  of    of     Rad.   Air    Rel.  Wind   Wind   Wind  Press.  Precip.   
Year   Day            Temp.  Hum.  Speed  Dir.   Gust                    
2015   (MST)  Kw/m2    F      %     mph   deg.    mph    mb.     in.     
-------------------------------------------------------------------------
 181    3:30   0.00   49.4    78    4.3    37     5.4   738.7    0.00 
 181    3:40   0.00   49.4    77    3.4    34     4.2   738.6    0.00 
 181    3:50   0.00   49.0    78    4.6    34     6.0   738.5    0.00 
 181    4:00   0.00   48.9    78    3.0    29     5.4   738.5    0.00 
 181    4:10   0.00   48.5    79    2.4    26     3.6   738.5    0.00 
 181    4:20   0.00   48.2    80    3.8    42     4.8   738.5    0.00 
 181    4:30   100.00  99999.0   99999  99999.0   99999   99999.0   99999.0   99999.00 
 181    4:40   100.00  99999.0   99999  99999.0   99999   99999.0   99999.0   99999.00 
 181    4:50   100.00  99999.0   99999  99999.0   99999   99999.0   99999.0   99999.00 
 181    5:00   100.00  99999.0   99999  99999.0   99999   99999.0   99999.0   99999.00 
 181    5:10   100.00  99999.0   99999  99999.0   99999   99999.0   99999.0   99999.00 
 181    5:20   100.00  99999.0   99999  99999.0   99999   99999.0   99999.0   99999.00 
 181    5:30   0.01   47.4    82    2.2    46     3.6   738.8    0.00 
 181    5:40   0.02   47.8    82    2.6    45     3.6   738.8    0.00 
 181    5:50   0.02   48.0    82    3.0    48     4.2   738.8    0.00 
 181    6:00   0.02   48.5    82    3.1     9     4.2   738.9    0.00 
 181    6:10   0.03   48.8    81    2.6    26     4.2   738.9    0.00 
 181    6:20   0.14   49.7    80    3.7    41     5.4   738.9    0.00 
 181    6:30   0.22   52.9    73    2.5   356     4.2   738.9    0.00 
 181    6:40   0.25   55.6    68    2.6    45     3.6   738.9    0.00 
 181    6:50   0.29   58.2    64    1.7    43     2.4   738.9    0.00 
 181    7:00   0.32   60.7    59    1.8    78     3.0   739.0    0.00 
 181    7:10   0.35   61.2    58    1.4    66     3.6   739.0    0.00 
 181    7:20   0.39   65.4    50    0.9   308     1.8   738.9    0.00 
 181    7:30   0.42   65.4    46    2.2   165     4.2   738.9    0.00 
 181    7:40   0.45   64.6    47    1.3   168     3.6   738.9    0.00 
 181    7:50   0.48   66.8    44    1.1   192     3.6   738.8    0.00 
 181    8:00   0.51   66.4    43    3.3   152     5.4   738.9    0.00 
 181    8:10   0.54   66.1    44    2.7   139     4.8   738.8    0.00 
 181    8:20   0.57   66.9    43    3.6   115     7.2   738.7    0.00 
 181    8:30   0.60   66.8    43    3.3   128     6.0   738.6    0.00 
 181    8:40   0.63   67.6    41    2.9   124     5.4   738.6    0.00 
 181    8:50   0.66   67.1    42    3.8   184     6.0   738.5    0.00 
 181    9:00   0.69   69.3    39    2.4   331     4.8   738.4    0.00 
 181    9:10   0.72   68.8    41    3.9   234     7.8   738.4    0.00 
 181    9:20   0.75   68.3    41    3.7   119     6.0   738.4    0.00 
 181    9:30   0.80   69.5    40    4.3   121     7.2   738.4    0.00 
 181    9:40   0.82   69.8    40    4.1   149     7.2   738.4    0.00 
 181    9:50   0.97   69.5    40    4.6   187     9.0   738.4    0.00 
 181   10:00   0.43   69.5    39    4.7   248     9.0   738.3    0.00 
 181   10:10   0.47   68.5    37    2.7   190     6.0   738.3    0.00 
 181   10:20   0.75   69.9    37    2.8   151     5.4   738.2    0.00 
 181   10:30   0.67   70.0    40    3.6   239     7.2   738.3    0.00 
 181   10:40   0.44   69.3    41    3.9   240     6.6   738.3    0.00 
 181   10:50   0.91   70.1    41    4.2   182     9.6   738.1    0.00 
 181   11:00   0.73   70.0    43    5.8   158    10.2   738.0    0.00 
 181   11:10   0.70   69.7    44    5.2   163    10.8   738.1    0.00 
 181   11:20   0.42   68.9    44    6.5   135    10.2   738.1    0.00 
 181   11:30   0.78   69.6    44    4.7   138     8.4   738.0    0.00 
 181   11:40   1.03   70.6    42    5.5   153     9.6   738.0    0.00 
 181   11:50   0.83   70.8    42    4.7   142     9.0   738.0    0.00 
 181   12:00   0.85   71.4    42    3.8   173     7.8   737.9    0.00 
 181   12:10   0.73   70.8    40    4.2   223     8.4   737.9    0.00 
 181   12:20   0.99   71.7    42    4.1    32     6.6   737.8    0.00 
 181   12:30   1.04   73.5    40    5.0   207     7.8   737.7    0.00 
 181   12:40   0.99   72.7    42    5.7   159    10.2   737.6    0.00 
 181   12:50   0.78   72.2    40    5.9   150    12.5   737.6    0.00 
 181   13:00   1.11   72.6    42    5.9   146    10.8   737.6    0.00 
 181   13:10   0.80   73.5    40    3.7   180     7.8   737.5    0.00 
 181   13:20   0.50   72.4    39    4.1   190     7.8   737.4    0.00 
 181   13:30   100.00  99999.0   99999  99999.0   99999   99999.0   99999.0   99999.00 
 181   13:40   100.00  99999.0   99999  99999.0   99999   99999.0   99999.0   99999.00 
 181   13:50   100.00  99999.0   99999  99999.0   99999   99999.0   99999.0   99999.00 
 181   14:00   100.00  99999.0   99999  99999.0   99999   99999.0   99999.0   99999.00 
 181   14:10   100.00  99999.0   99999  99999.0   99999   99999.0   99999.0   99999.00 
 181   14:20   100.00  99999.0   99999  99999.0   99999   99999.0   99999.0   99999.00 
 181   14:30   100.00  99999.0   99999  99999.0   99999   99999.0   99999.0   99999.00 
 181   14:40   100.00  99999.0   99999  99999.0   99999   99999.0   99999.0   99999.00 
 181   14:50   100.00  99999.0   99999  99999.0   99999   99999.0   99999.0   99999.00 
 181   15:00   100.00  99999.0   99999  99999.0   99999   99999.0   99999.0   99999.00 
 181   15:10   100.00  99999.0   99999  99999.0   99999   99999.0   99999.0   99999.00 
 181   15:20   100.00  99999.0   99999  99999.0   99999   99999.0   99999.0   99999.00 
 181   15:30   0.51   74.8    34    5.1   174    10.8   736.5    0.00 
 181   15:40   0.72   76.0    32    3.9   186     7.2   736.4    0.00 
 181   15:50   0.71   76.4    32    6.2   154    13.1   736.3    0.00 
 181   16:00   0.72   76.3    31    5.4   137    10.2   736.2    0.00 
 181   16:10   0.56   76.2    31    5.9   155    10.8   736.2    0.00 
 181   16:20   100.00  99999.0   99999  99999.0   99999   99999.0   99999.0   99999.00 
 181   16:30   0.54   76.1    30    4.3   163     8.4   736.2    0.00 
 181   16:40   0.50   76.4    30    4.8   173     9.0   736.1    0.00 
 181   16:50   0.47   76.6    30    4.7   195     7.8   736.1    0.00 
 181   17:00   0.44   76.2    29    5.1   171     7.8   736.1    0.00 
 181   17:10   0.41   76.4    28    3.6   166     6.6   736.0    0.00 
 181   17:20   0.37   76.0    29    5.6   148     8.4   735.9    0.00 
 181   17:30   0.34   76.1    30    4.0   143     6.6   735.9    0.00 
 181   17:40   0.31   75.7    29    4.9   158     7.8   735.8    0.00 
 181   17:50   0.28   75.7    30    3.5   160     6.6   735.7    0.00 
 181   18:00   0.24   75.5    30    4.3   137     7.2   735.7    0.00 
 181   18:10   0.21   75.3    28    4.2   158     7.2   735.7    0.00 
 181   18:20   0.18   74.7    29    5.4   151     8.4   735.9    0.00 
 181   18:30   0.14   73.9    31    4.4   149     6.6   735.9    0.00 
 181   18:40   0.10   72.8    32    4.4   136     6.6   735.9    0.00 
 181   18:50   0.04   71.7    32    3.5   114     4.8   735.8    0.00 
 181   19:00   0.01   70.2    34    3.2    85     4.2   735.8    0.00 
 181   19:10   0.01   68.1    40    3.9    46     5.4   735.7    0.00 
 181   19:20   0.01   65.9    46    4.6    37     5.4   735.7    0.00 
 181   19:30   0.00   63.8    51    4.8    40     6.0   735.6    0.00 
 181   19:40   0.00   62.8    52    4.7    45     6.0   735.6    0.00 
 181   19:50   0.00   62.0    52    3.0    19     5.4   735.7    0.00 
 181   20:00   0.00   61.7    52    3.3    45     6.0   735.9    0.00 
 181   20:10   0.00   61.1    54    4.6    39     6.0   736.1    0.00 
 181   20:20   0.00   61.8    50    4.4    58     5.4   736.2    0.00 
 181   20:30   0.00   61.4    51    4.7    38     6.0   736.3    0.00 
 181   20:40   0.00   60.7    53    4.5    98     9.0   736.5    0.00 
 181   20:50   0.00   62.3    47    3.3   109     5.4   736.7    0.00 
 181   21:00   0.00   63.7    45    3.7   104     6.0   736.8    0.00 
 181   21:10   0.00   64.3    44    4.9   109     6.6   736.9    0.00 
 181   21:20   0.00   64.1    45    3.2   107     5.4   737.0    0.00 
 181   21:30   0.00   63.2    47    4.0   104     9.0   737.1    0.00 
 181   21:40   0.00   62.5    49    4.0    91     6.6   737.2    0.00 
 181   21:50   0.00   62.1    50    4.1    90     6.6   737.3    0.00 
 181   22:00   0.00   61.6    51    4.2    91     7.2   737.3    0.00 
 181   22:10   0.00   60.6    54    3.7    69     6.0   737.2    0.00 
 181   22:20   0.00   59.3    56    4.5    61     9.6   737.2    0.00 
 181   22:30   0.00   59.5    54    4.1    62     6.6   737.3    0.00 
 181   22:40   0.00   59.3    53    3.8    65     5.4   737.3    0.00 
 181   22:50   0.00   59.9    51    4.2    64     6.0   737.4    0.00 
 181   23:00   0.00   59.1    53    4.5    67     7.2   737.3    0.00 
 181   23:10   0.00   58.1    56    4.0    58     5.4   737.3    0.00 
 181   23:20   0.00   56.9    59    4.0    59     4.8   737.3    0.00 
 181   23:30   0.00   56.1    62    4.4    43     5.4   737.4    0.00 
 181   23:40   0.00   55.0    65    4.0    47     5.4   737.4    0.00 
 181   23:50   0.00   54.2    66    2.8    20     4.2   737.5    0.00 
 182    0:00   0.00   53.8    66    4.5    32     6.0   737.5    0.00 
 182    0:10   0.00   54.0    65    4.3    38     5.4   737.5    0.00 
 182    0:20   0.00   54.0    67    4.4    44     6.0   737.4    0.00 
 182    0:30   0.00   54.2    65    4.4    56     5.4   737.5    0.00 
 182    0:40   0.00   55.0    64    4.6    50     6.0   737.5    0.00 
 182    0:50   0.00   54.4    65    4.7    42     6.6   737.5    0.00 
 182    1:00   0.00   54.3    64    4.6    46     6.0   737.6    0.00 
 182    1:10   0.00   54.6    64    4.6    34     5.4   737.5    0.00 
 182    1:20   0.00   54.4    63    4.6    37     5.4   737.5    0.00 
 182    1:30   0.00   54.2    65    2.2    70     4.8   737.5    0.00 
 182    1:40   0.00   54.0    64    2.8    32     3.6   737.5    0.00 
 182    1:50   0.00   54.1    63    4.9    12     9.6   737.7    0.00 
 182    2:00   0.00   58.3    51    6.8   337    13.1   738.0    0.00 
 182    2:10   0.00   60.4    48    7.0   328    10.8   738.2    0.00 
 182    2:20   0.00   60.8    48    5.9   340    11.3   738.4    0.00 
 182    2:30   0.00   60.8    50    6.6   330    13.1   738.3    0.00 
 182    2:40   0.00   60.3    51    6.3   323    11.3   738.2    0.00 
 182    2:50   0.00   60.0    52    6.4     5    16.7   738.1    0.00 
 182    3:00   0.00   60.3    52    6.4     1    11.9   738.1    0.00 
 182    3:10   0.00   60.1    52    6.3   348    11.9   738.0    0.00 
 182    3:20   0.00   59.9    52    6.3   356    12.5   738.0    0.00 

Return to Valle Toledo, Valles Caldera graphs page.


Western Regional Climate Center,wrcc@dri.edu